Moby Aki — IBVV — position and weather

sailwx.info

Track history (hours):
 
Tides and Currents Weather Stations Pressure Air Temp Water Temp Dewpoint Dewpoint Depression Visibility Wind Speed Wind Dir Waves Ship Positions

Moby Aki

Last reported at 2017-Feb-20 22:33 UTC. Time now 2017-Feb-21 01:22 UTC.
Position N 43°01' E 010°01'.

Length 175 m; draft 6.9 m.

Type: Ship. MMSI: 247132400.

Date/timePositionNaut miles runAvg speedWind from/ knotsBaromVisibWave heightAir tempDewpointWater temp
2017-Feb-20 22:33N 43°01' E 010°01'2020.3
2017-Feb-20 21:33N 43°20' E 010°09'1513.5
2017-Feb-20 20:29N 43°33' E 010°18'0 0.0
2017-Feb-20 19:31N 43°33' E 010°18'0 0.0
2017-Feb-20 18:34N 43°33' E 010°18'0 0.0
2017-Feb-20 17:33N 43°33' E 010°18'0 0.0
2017-Feb-20 16:33N 43°33' E 010°18'0 0.0
2017-Feb-20 15:33N 43°33' E 010°18'0 0.0
2017-Feb-20 14:33N 43°33' E 010°18'0 0.0
2017-Feb-20 13:33N 43°33' E 010°18'0 0.0
2017-Feb-20 12:33N 43°33' E 010°18'0 0.0
2017-Feb-20 11:32N 43°33' E 010°18'0 0.0
2017-Feb-20 10:29N 43°33' E 010°18'0 0.0
2017-Feb-20 09:32N 43°33' E 010°18'0 0.0
2017-Feb-20 08:32N 43°33' E 010°18'0 0.0
2017-Feb-20 07:32N 43°33' E 010°18'0 0.0
2017-Feb-20 06:31N 43°33' E 010°18'0 0.0
2017-Feb-20 05:31N 43°33' E 010°18'9 9.1
2017-Feb-20 04:34N 43°26' E 010°11'2120.5
2017-Feb-20 03:33N 43°07' E 010°01'7 0.2
2017-Feb-18 22:32N 42°60' E 010°03'2020.5
2017-Feb-18 21:33N 43°19' E 010°07'1615.8
2017-Feb-18 20:33N 43°33' E 010°18'0 0.2
2017-Feb-18 19:33N 43°33' E 010°18'0 0.0
2017-Feb-18 18:32N 43°33' E 010°18'0 0.0
2017-Feb-18 17:32N 43°33' E 010°18'0 0.0
2017-Feb-18 16:32N 43°33' E 010°18'0 0.0
2017-Feb-18 15:32N 43°33' E 010°18'0 0.0
2017-Feb-18 14:32N 43°33' E 010°18'0 0.0
2017-Feb-18 13:26N 43°33' E 010°18'0 0.0
2017-Feb-18 12:29N 43°33' E 010°18'0 0.0
2017-Feb-18 11:32N 43°33' E 010°18'0 0.0
2017-Feb-18 10:29N 43°33' E 010°18'0 0.0
2017-Feb-18 09:23N 43°33' E 010°18'0 0.0
2017-Feb-18 08:32N 43°33' E 010°18'0 0.0
2017-Feb-18 07:31N 43°33' E 010°18'0 0.0
2017-Feb-18 06:31N 43°33' E 010°18'0 0.0
2017-Feb-18 05:31N 43°33' E 010°18'9 9.1
2017-Feb-18 04:33N 43°26' E 010°11'2121.1
2017-Feb-18 03:34N 43°06' E 010°00'6 0.2
2017-Feb-16 22:33N 43°01' E 010°05'2020.6
2017-Feb-16 21:33N 43°21' E 010°11'1312.9
2017-Feb-16 20:33N 43°33' E 010°18'0 0.0
2017-Feb-16 19:24N 43°33' E 010°18'0 0.0
2017-Feb-16 18:33N 43°33' E 010°18'0 0.0
2017-Feb-16 17:32N 43°33' E 010°18'0 0.0
2017-Feb-16 16:32N 43°33' E 010°18'0 0.0
2017-Feb-16 15:32N 43°33' E 010°18'0 0.0
2017-Feb-16 14:32N 43°33' E 010°18'0 0.0
2017-Feb-16 13:32N 43°33' E 010°18'0 0.0
2017-Feb-16 12:31N 43°33' E 010°18'0 0.0
2017-Feb-16 11:31N 43°33' E 010°18'0 0.0
2017-Feb-16 10:31N 43°33' E 010°18'0 0.0
2017-Feb-16 09:22N 43°33' E 010°18'0 0.0
2017-Feb-16 08:31N 43°33' E 010°18'0 0.0
2017-Feb-16 07:33N 43°33' E 010°18'0 0.0
2017-Feb-16 06:33N 43°33' E 010°18'0 0.0
2017-Feb-16 05:33N 43°33' E 010°18'8 7.9
2017-Feb-16 04:34N 43°26' E 010°13'2019.8
2017-Feb-16 03:33N 43°07' E 010°07'2119.7
2017-Feb-16 02:30N 42°46' E 010°01'20 0.7
2017-Feb-14 22:33N 43°06' E 010°07'2120.6
2017-Feb-14 21:33N 43°26' E 010°12'8 8.0
2017-Feb-14 20:31N 43°33' E 010°18'0 0.0
2017-Feb-14 19:31N 43°33' E 010°18'0 0.0
2017-Feb-14 18:31N 43°33' E 010°18'0 0.0
2017-Feb-14 17:33N 43°33' E 010°18'0 0.0
2017-Feb-14 16:30N 43°33' E 010°18'0 0.0
2017-Feb-14 15:33N 43°33' E 010°18'0 0.0
2017-Feb-14 14:33N 43°33' E 010°18'0 0.0
2017-Feb-14 13:33N 43°33' E 010°18'0 0.0
2017-Feb-14 12:33N 43°33' E 010°18'0 0.0
2017-Feb-14 11:33N 43°33' E 010°18'0 0.0
2017-Feb-14 10:33N 43°33' E 010°18'0 0.0
2017-Feb-14 09:27N 43°33' E 010°18'0 0.0
2017-Feb-14 08:30N 43°33' E 010°18'0 0.0
2017-Feb-14 07:33N 43°33' E 010°18'0 0.0
2017-Feb-14 06:33N 43°33' E 010°18'0 0.0
2017-Feb-14 05:33N 43°33' E 010°18'8 8.1
2017-Feb-14 04:33N 43°26' E 010°12'2019.7
2017-Feb-14 03:33N 43°07' E 010°07'3 0.1
2017-Feb-12 22:33N 43°05' E 010°06'2120.6
2017-Feb-12 21:33N 43°25' E 010°11'10 9.5
2017-Feb-12 20:32N 43°33' E 010°18'0 0.0
2017-Feb-12 19:32N 43°33' E 010°18'0 0.0
2017-Feb-12 18:33N 43°33' E 010°18'0 0.0
2017-Feb-12 17:30N 43°33' E 010°18'0 0.0
2017-Feb-12 16:33N 43°33' E 010°18'0 0.0
2017-Feb-12 15:24N 43°33' E 010°18'0 0.0
2017-Feb-12 14:33N 43°33' E 010°18'0 0.0
2017-Feb-12 13:33N 43°33' E 010°18'0 0.0
2017-Feb-12 12:33N 43°33' E 010°18'0 0.0
2017-Feb-12 11:29N 43°33' E 010°18'0 0.0
2017-Feb-12 10:26N 43°33' E 010°18'0 0.0
2017-Feb-12 09:32N 43°33' E 010°18'0 0.0
2017-Feb-12 08:32N 43°33' E 010°18'0 0.0
2017-Feb-12 07:32N 43°33' E 010°18'0 0.0
2017-Feb-12 06:29N 43°33' E 010°18'0 0.0
2017-Feb-12 05:31N 43°33' E 010°18'8 8.8
2017-Feb-12 04:33N 43°26' E 010°12'2019.8
2017-Feb-12 03:33N 43°06' E 010°07'21 0.7
2017-Feb-10 23:18N 42°46' E 010°01'1520.6
2017-Feb-10 22:33N 43°01' E 010°05'  
Track history (hours):
 
Tides and Currents Weather Stations Pressure Air Temp Water Temp Dewpoint Dewpoint Depression Visibility Wind Speed Wind Dir Waves Ship Positions

Moby Aki

Last reported at 2017-Feb-20 22:33 UTC. Time now 2017-Feb-21 01:22 UTC.
Position N 43°01' E 010°01'.

Length 175 m; draft 6.9 m.

Type: Ship. MMSI: 247132400.

Date/timePositionNaut miles runAvg speedWind from/ knotsBaromVisibWave heightAir tempDewpointWater temp
2017-Feb-20 22:33N 43°01' E 010°01'2020.3
2017-Feb-20 21:33N 43°20' E 010°09'1513.5
2017-Feb-20 20:29N 43°33' E 010°18'0 0.0
2017-Feb-20 19:31N 43°33' E 010°18'0 0.0
2017-Feb-20 18:34N 43°33' E 010°18'0 0.0
2017-Feb-20 17:33N 43°33' E 010°18'0 0.0
2017-Feb-20 16:33N 43°33' E 010°18'0 0.0
2017-Feb-20 15:33N 43°33' E 010°18'0 0.0
2017-Feb-20 14:33N 43°33' E 010°18'0 0.0
2017-Feb-20 13:33N 43°33' E 010°18'0 0.0
2017-Feb-20 12:33N 43°33' E 010°18'0 0.0
2017-Feb-20 11:32N 43°33' E 010°18'0 0.0
2017-Feb-20 10:29N 43°33' E 010°18'0 0.0
2017-Feb-20 09:32N 43°33' E 010°18'0 0.0
2017-Feb-20 08:32N 43°33' E 010°18'0 0.0
2017-Feb-20 07:32N 43°33' E 010°18'0 0.0
2017-Feb-20 06:31N 43°33' E 010°18'0 0.0
2017-Feb-20 05:31N 43°33' E 010°18'9 9.1
2017-Feb-20 04:34N 43°26' E 010°11'2120.5
2017-Feb-20 03:33N 43°07' E 010°01'7 0.2
2017-Feb-18 22:32N 42°60' E 010°03'2020.5
2017-Feb-18 21:33N 43°19' E 010°07'1615.8
2017-Feb-18 20:33N 43°33' E 010°18'0 0.2
2017-Feb-18 19:33N 43°33' E 010°18'0 0.0
2017-Feb-18 18:32N 43°33' E 010°18'0 0.0
2017-Feb-18 17:32N 43°33' E 010°18'0 0.0
2017-Feb-18 16:32N 43°33' E 010°18'0 0.0
2017-Feb-18 15:32N 43°33' E 010°18'0 0.0
2017-Feb-18 14:32N 43°33' E 010°18'0 0.0
2017-Feb-18 13:26N 43°33' E 010°18'0 0.0
2017-Feb-18 12:29N 43°33' E 010°18'0 0.0
2017-Feb-18 11:32N 43°33' E 010°18'0 0.0
2017-Feb-18 10:29N 43°33' E 010°18'0 0.0
2017-Feb-18 09:23N 43°33' E 010°18'0 0.0
2017-Feb-18 08:32N 43°33' E 010°18'0 0.0
2017-Feb-18 07:31N 43°33' E 010°18'0 0.0
2017-Feb-18 06:31N 43°33' E 010°18'0 0.0
2017-Feb-18 05:31N 43°33' E 010°18'9 9.1
2017-Feb-18 04:33N 43°26' E 010°11'2121.1
2017-Feb-18 03:34N 43°06' E 010°00'6 0.2
2017-Feb-16 22:33N 43°01' E 010°05'2020.6
2017-Feb-16 21:33N 43°21' E 010°11'1312.9
2017-Feb-16 20:33N 43°33' E 010°18'0 0.0
2017-Feb-16 19:24N 43°33' E 010°18'0 0.0
2017-Feb-16 18:33N 43°33' E 010°18'0 0.0
2017-Feb-16 17:32N 43°33' E 010°18'0 0.0
2017-Feb-16 16:32N 43°33' E 010°18'0 0.0
2017-Feb-16 15:32N 43°33' E 010°18'0 0.0
2017-Feb-16 14:32N 43°33' E 010°18'0 0.0
2017-Feb-16 13:32N 43°33' E 010°18'0 0.0
2017-Feb-16 12:31N 43°33' E 010°18'0 0.0
2017-Feb-16 11:31N 43°33' E 010°18'0 0.0
2017-Feb-16 10:31N 43°33' E 010°18'0 0.0
2017-Feb-16 09:22N 43°33' E 010°18'0 0.0
2017-Feb-16 08:31N 43°33' E 010°18'0 0.0
2017-Feb-16 07:33N 43°33' E 010°18'0 0.0
2017-Feb-16 06:33N 43°33' E 010°18'0 0.0
2017-Feb-16 05:33N 43°33' E 010°18'8 7.9
2017-Feb-16 04:34N 43°26' E 010°13'2019.8
2017-Feb-16 03:33N 43°07' E 010°07'2119.7
2017-Feb-16 02:30N 42°46' E 010°01'20 0.7
2017-Feb-14 22:33N 43°06' E 010°07'2120.6
2017-Feb-14 21:33N 43°26' E 010°12'8 8.0
2017-Feb-14 20:31N 43°33' E 010°18'0 0.0
2017-Feb-14 19:31N 43°33' E 010°18'0 0.0
2017-Feb-14 18:31N 43°33' E 010°18'0 0.0
2017-Feb-14 17:33N 43°33' E 010°18'0 0.0
2017-Feb-14 16:30N 43°33' E 010°18'0 0.0
2017-Feb-14 15:33N 43°33' E 010°18'0 0.0
2017-Feb-14 14:33N 43°33' E 010°18'0 0.0
2017-Feb-14 13:33N 43°33' E 010°18'0 0.0
2017-Feb-14 12:33N 43°33' E 010°18'0 0.0
2017-Feb-14 11:33N 43°33' E 010°18'0 0.0
2017-Feb-14 10:33N 43°33' E 010°18'0 0.0
2017-Feb-14 09:27N 43°33' E 010°18'0 0.0
2017-Feb-14 08:30N 43°33' E 010°18'0 0.0
2017-Feb-14 07:33N 43°33' E 010°18'0 0.0
2017-Feb-14 06:33N 43°33' E 010°18'0 0.0
2017-Feb-14 05:33N 43°33' E 010°18'8 8.1
2017-Feb-14 04:33N 43°26' E 010°12'2019.7
2017-Feb-14 03:33N 43°07' E 010°07'3 0.1
2017-Feb-12 22:33N 43°05' E 010°06'2120.6
2017-Feb-12 21:33N 43°25' E 010°11'10 9.5
2017-Feb-12 20:32N 43°33' E 010°18'0 0.0
2017-Feb-12 19:32N 43°33' E 010°18'0 0.0
2017-Feb-12 18:33N 43°33' E 010°18'0 0.0
2017-Feb-12 17:30N 43°33' E 010°18'0 0.0
2017-Feb-12 16:33N 43°33' E 010°18'0 0.0
2017-Feb-12 15:24N 43°33' E 010°18'0 0.0
2017-Feb-12 14:33N 43°33' E 010°18'0 0.0
2017-Feb-12 13:33N 43°33' E 010°18'0 0.0
2017-Feb-12 12:33N 43°33' E 010°18'0 0.0
2017-Feb-12 11:29N 43°33' E 010°18'0 0.0
2017-Feb-12 10:26N 43°33' E 010°18'0 0.0
2017-Feb-12 09:32N 43°33' E 010°18'0 0.0
2017-Feb-12 08:32N 43°33' E 010°18'0 0.0
2017-Feb-12 07:32N 43°33' E 010°18'0 0.0
2017-Feb-12 06:29N 43°33' E 010°18'0 0.0
2017-Feb-12 05:31N 43°33' E 010°18'8 8.8
2017-Feb-12 04:33N 43°26' E 010°12'2019.8
2017-Feb-12 03:33N 43°06' E 010°07'21 0.7
2017-Feb-10 23:18N 42°46' E 010°01'1520.6
2017-Feb-10 22:33N 43°01' E 010°05'  

Dump ship's entire track history